sensor_id;sensor_type;location;lat;lon;timestamp;temperature;humidity
4390;DHT22;2209;48.982;8.406;2022-11-15T00:01:58;9.50;99.90
4390;DHT22;2209;48.982;8.406;2022-11-15T00:04:20;9.50;99.90
4390;DHT22;2209;48.982;8.406;2022-11-15T00:06:42;9.50;99.90
4390;DHT22;2209;48.982;8.406;2022-11-15T00:09:04;9.50;99.90
4390;DHT22;2209;48.982;8.406;2022-11-15T00:11:27;9.50;99.90
4390;DHT22;2209;48.982;8.406;2022-11-15T00:13:49;9.50;99.90
4390;DHT22;2209;48.982;8.406;2022-11-15T00:16:12;9.50;99.90
4390;DHT22;2209;48.982;8.406;2022-11-15T00:18:34;9.50;99.90
4390;DHT22;2209;48.982;8.406;2022-11-15T00:21:03;9.50;99.90
4390;DHT22;2209;48.982;8.406;2022-11-15T00:23:25;9.50;99.90
4390;DHT22;2209;48.982;8.406;2022-11-15T00:25:55;9.50;99.90
4390;DHT22;2209;48.982;8.406;2022-11-15T00:28:17;9.50;99.90
4390;DHT22;2209;48.982;8.406;2022-11-15T00:30:39;9.50;99.90
4390;DHT22;2209;48.982;8.406;2022-11-15T00:33:04;9.50;99.90
4390;DHT22;2209;48.982;8.406;2022-11-15T00:35:26;9.50;99.90
4390;DHT22;2209;48.982;8.406;2022-11-15T00:37:48;9.40;99.90
4390;DHT22;2209;48.982;8.406;2022-11-15T00:40:11;9.40;99.90
4390;DHT22;2209;48.982;8.406;2022-11-15T00:42:34;9.40;99.90
4390;DHT22;2209;48.982;8.406;2022-11-15T00:44:56;9.40;99.90
4390;DHT22;2209;48.982;8.406;2022-11-15T00:47:18;9.40;99.90
4390;DHT22;2209;48.982;8.406;2022-11-15T00:49:42;9.40;99.90
4390;DHT22;2209;48.982;8.406;2022-11-15T00:52:04;9.40;99.90
4390;DHT22;2209;48.982;8.406;2022-11-15T00:54:26;9.40;99.90
4390;DHT22;2209;48.982;8.406;2022-11-15T00:56:48;9.50;99.90
4390;DHT22;2209;48.982;8.406;2022-11-15T00:59:10;9.50;99.90
4390;DHT22;2209;48.982;8.406;2022-11-15T01:01:32;9.50;99.90
4390;DHT22;2209;48.982;8.406;2022-11-15T01:03:54;9.50;99.90
4390;DHT22;2209;48.982;8.406;2022-11-15T01:06:17;9.50;99.90
4390;DHT22;2209;48.982;8.406;2022-11-15T01:08:39;9.50;99.90
4390;DHT22;2209;48.982;8.406;2022-11-15T01:11:02;9.50;99.90
4390;DHT22;2209;48.982;8.406;2022-11-15T01:13:25;9.50;99.90
4390;DHT22;2209;48.982;8.406;2022-11-15T01:15:47;9.50;99.90
4390;DHT22;2209;48.982;8.406;2022-11-15T01:18:09;9.50;99.90
4390;DHT22;2209;48.982;8.406;2022-11-15T01:20:31;9.50;99.90
4390;DHT22;2209;48.982;8.406;2022-11-15T01:22:55;9.50;99.90
4390;DHT22;2209;48.982;8.406;2022-11-15T01:25:17;9.50;99.90
4390;DHT22;2209;48.982;8.406;2022-11-15T01:27:39;9.50;99.90
4390;DHT22;2209;48.982;8.406;2022-11-15T01:30:01;9.50;99.90
4390;DHT22;2209;48.982;8.406;2022-11-15T01:32:23;9.50;99.90
4390;DHT22;2209;48.982;8.406;2022-11-15T01:34:45;9.50;99.90
4390;DHT22;2209;48.982;8.406;2022-11-15T01:37:07;9.50;99.90
4390;DHT22;2209;48.982;8.406;2022-11-15T01:39:30;9.50;99.90
4390;DHT22;2209;48.982;8.406;2022-11-15T01:41:53;9.50;99.90
4390;DHT22;2209;48.982;8.406;2022-11-15T01:44:41;9.50;99.90
4390;DHT22;2209;48.982;8.406;2022-11-15T01:47:08;9.50;99.90
4390;DHT22;2209;48.982;8.406;2022-11-15T01:49:33;9.50;99.90
4390;DHT22;2209;48.982;8.406;2022-11-15T01:51:56;9.50;99.90
4390;DHT22;2209;48.982;8.406;2022-11-15T01:54:20;9.40;99.90
4390;DHT22;2209;48.982;8.406;2022-11-15T01:56:50;9.50;99.90
4390;DHT22;2209;48.982;8.406;2022-11-15T01:59:14;9.50;99.90
4390;DHT22;2209;48.982;8.406;2022-11-15T02:01:36;9.50;99.90
4390;DHT22;2209;48.982;8.406;2022-11-15T02:04:01;9.50;99.90
4390;DHT22;2209;48.982;8.406;2022-11-15T02:06:25;9.50;99.90
4390;DHT22;2209;48.982;8.406;2022-11-15T02:08:47;9.50;99.90
4390;DHT22;2209;48.982;8.406;2022-11-15T02:11:10;9.50;99.90
4390;DHT22;2209;48.982;8.406;2022-11-15T02:13:34;9.50;99.90
4390;DHT22;2209;48.982;8.406;2022-11-15T02:16:04;9.50;99.90
4390;DHT22;2209;48.982;8.406;2022-11-15T02:18:31;9.50;99.90
4390;DHT22;2209;48.982;8.406;2022-11-15T02:21:06;9.50;99.90
4390;DHT22;2209;48.982;8.406;2022-11-15T02:26:59;9.50;99.90
4390;DHT22;2209;48.982;8.406;2022-11-15T02:29:39;9.50;99.90
4390;DHT22;2209;48.982;8.406;2022-11-15T02:32:18;9.50;99.90
4390;DHT22;2209;48.982;8.406;2022-11-15T02:34:49;9.50;99.90
4390;DHT22;2209;48.982;8.406;2022-11-15T02:37:16;9.50;99.90
4390;DHT22;2209;48.982;8.406;2022-11-15T02:39:46;9.50;99.90
4390;DHT22;2209;48.982;8.406;2022-11-15T02:42:14;9.50;99.90
4390;DHT22;2209;48.982;8.406;2022-11-15T02:44:58;9.50;99.90
4390;DHT22;2209;48.982;8.406;2022-11-15T02:47:26;9.50;99.90
4390;DHT22;2209;48.982;8.406;2022-11-15T02:49:52;9.50;99.90
4390;DHT22;2209;48.982;8.406;2022-11-15T02:52:16;9.50;99.90
4390;DHT22;2209;48.982;8.406;2022-11-15T02:54:38;9.50;99.90
4390;DHT22;2209;48.982;8.406;2022-11-15T02:57:03;9.50;99.90
4390;DHT22;2209;48.982;8.406;2022-11-15T02:59:49;9.50;99.90
4390;DHT22;2209;48.982;8.406;2022-11-15T03:02:21;9.50;99.90
4390;DHT22;2209;48.982;8.406;2022-11-15T03:04:53;9.50;99.90
4390;DHT22;2209;48.982;8.406;2022-11-15T03:07:22;9.60;99.90
4390;DHT22;2209;48.982;8.406;2022-11-15T03:09:52;9.60;99.90
4390;DHT22;2209;48.982;8.406;2022-11-15T03:12:23;9.60;99.90
4390;DHT22;2209;48.982;8.406;2022-11-15T03:14:54;9.50;99.90
4390;DHT22;2209;48.982;8.406;2022-11-15T03:17:23;9.60;99.90
4390;DHT22;2209;48.982;8.406;2022-11-15T03:19:49;9.60;99.90
4390;DHT22;2209;48.982;8.406;2022-11-15T03:22:15;9.60;99.90
4390;DHT22;2209;48.982;8.406;2022-11-15T03:24:38;9.60;99.90
4390;DHT22;2209;48.982;8.406;2022-11-15T03:27:02;9.60;99.90
4390;DHT22;2209;48.982;8.406;2022-11-15T03:29:27;9.60;99.90
4390;DHT22;2209;48.982;8.406;2022-11-15T03:31:54;9.60;99.90
4390;DHT22;2209;48.982;8.406;2022-11-15T03:34:22;9.60;99.90
4390;DHT22;2209;48.982;8.406;2022-11-15T03:36:47;9.60;99.90
4390;DHT22;2209;48.982;8.406;2022-11-15T03:39:12;9.60;99.90
4390;DHT22;2209;48.982;8.406;2022-11-15T03:41:39;9.70;99.90
4390;DHT22;2209;48.982;8.406;2022-11-15T03:44:07;9.70;99.90
4390;DHT22;2209;48.982;8.406;2022-11-15T03:46:33;9.70;99.90
4390;DHT22;2209;48.982;8.406;2022-11-15T03:49:03;9.70;99.90
4390;DHT22;2209;48.982;8.406;2022-11-15T03:51:28;9.70;99.90
4390;DHT22;2209;48.982;8.406;2022-11-15T03:53:52;9.70;99.90
4390;DHT22;2209;48.982;8.406;2022-11-15T03:56:14;9.70;99.90
4390;DHT22;2209;48.982;8.406;2022-11-15T03:58:36;9.70;99.90
4390;DHT22;2209;48.982;8.406;2022-11-15T04:00:58;9.70;99.90
4390;DHT22;2209;48.982;8.406;2022-11-15T04:03:20;9.70;99.90
4390;DHT22;2209;48.982;8.406;2022-11-15T04:05:42;9.70;99.90
4390;DHT22;2209;48.982;8.406;2022-11-15T04:08:04;9.70;99.90
4390;DHT22;2209;48.982;8.406;2022-11-15T04:10:28;9.70;99.90
4390;DHT22;2209;48.982;8.406;2022-11-15T04:12:50;9.70;99.90
4390;DHT22;2209;48.982;8.406;2022-11-15T04:15:14;9.80;99.90
4390;DHT22;2209;48.982;8.406;2022-11-15T04:17:39;9.80;99.90
4390;DHT22;2209;48.982;8.406;2022-11-15T04:20:02;9.80;99.90
4390;DHT22;2209;48.982;8.406;2022-11-15T04:22:43;9.80;99.90
4390;DHT22;2209;48.982;8.406;2022-11-15T04:25:24;9.80;99.90
4390;DHT22;2209;48.982;8.406;2022-11-15T04:27:48;9.80;99.90
4390;DHT22;2209;48.982;8.406;2022-11-15T04:30:10;9.80;99.90
4390;DHT22;2209;48.982;8.406;2022-11-15T04:32:32;9.80;99.90
4390;DHT22;2209;48.982;8.406;2022-11-15T04:34:54;9.80;99.90
4390;DHT22;2209;48.982;8.406;2022-11-15T04:37:16;9.80;99.90
4390;DHT22;2209;48.982;8.406;2022-11-15T04:39:37;9.80;99.90
4390;DHT22;2209;48.982;8.406;2022-11-15T04:41:59;9.80;99.90
4390;DHT22;2209;48.982;8.406;2022-11-15T04:44:23;9.80;99.90
4390;DHT22;2209;48.982;8.406;2022-11-15T04:46:45;9.80;99.90
4390;DHT22;2209;48.982;8.406;2022-11-15T04:49:07;9.80;99.90
4390;DHT22;2209;48.982;8.406;2022-11-15T04:51:29;9.80;99.90
4390;DHT22;2209;48.982;8.406;2022-11-15T04:53:51;9.80;99.90
4390;DHT22;2209;48.982;8.406;2022-11-15T04:56:13;9.80;99.90
4390;DHT22;2209;48.982;8.406;2022-11-15T04:58:35;9.80;99.90
4390;DHT22;2209;48.982;8.406;2022-11-15T05:01:06;9.80;99.90
4390;DHT22;2209;48.982;8.406;2022-11-15T05:03:29;9.80;99.90
4390;DHT22;2209;48.982;8.406;2022-11-15T05:06:08;9.80;99.90
4390;DHT22;2209;48.982;8.406;2022-11-15T05:08:30;9.80;99.90
4390;DHT22;2209;48.982;8.406;2022-11-15T05:10:52;9.80;99.90
4390;DHT22;2209;48.982;8.406;2022-11-15T05:13:14;9.80;99.90
4390;DHT22;2209;48.982;8.406;2022-11-15T05:15:36;9.80;99.90
4390;DHT22;2209;48.982;8.406;2022-11-15T05:18:00;9.80;99.90
4390;DHT22;2209;48.982;8.406;2022-11-15T05:20:22;9.80;99.90
4390;DHT22;2209;48.982;8.406;2022-11-15T05:22:44;9.80;99.90
4390;DHT22;2209;48.982;8.406;2022-11-15T05:25:07;9.80;99.90
4390;DHT22;2209;48.982;8.406;2022-11-15T05:27:29;9.80;99.90
4390;DHT22;2209;48.982;8.406;2022-11-15T05:29:52;9.80;99.90
4390;DHT22;2209;48.982;8.406;2022-11-15T05:32:14;9.80;99.90
4390;DHT22;2209;48.982;8.406;2022-11-15T05:34:38;9.80;99.90
4390;DHT22;2209;48.982;8.406;2022-11-15T05:37:00;9.80;99.90
4390;DHT22;2209;48.982;8.406;2022-11-15T05:39:22;9.80;99.90
4390;DHT22;2209;48.982;8.406;2022-11-15T05:41:49;9.80;99.90
4390;DHT22;2209;48.982;8.406;2022-11-15T05:44:15;9.80;99.90
4390;DHT22;2209;48.982;8.406;2022-11-15T05:46:40;9.80;99.90
4390;DHT22;2209;48.982;8.406;2022-11-15T05:49:04;9.80;99.90
4390;DHT22;2209;48.982;8.406;2022-11-15T05:51:30;9.80;99.90
4390;DHT22;2209;48.982;8.406;2022-11-15T05:53:53;9.80;99.90
4390;DHT22;2209;48.982;8.406;2022-11-15T05:56:17;9.70;99.90
4390;DHT22;2209;48.982;8.406;2022-11-15T05:58:39;9.70;99.90
4390;DHT22;2209;48.982;8.406;2022-11-15T06:01:01;9.70;99.90
4390;DHT22;2209;48.982;8.406;2022-11-15T06:03:24;9.70;99.90
4390;DHT22;2209;48.982;8.406;2022-11-15T06:05:46;9.70;99.90
4390;DHT22;2209;48.982;8.406;2022-11-15T06:08:09;9.70;99.90
4390;DHT22;2209;48.982;8.406;2022-11-15T06:10:32;9.70;99.90
4390;DHT22;2209;48.982;8.406;2022-11-15T06:12:57;9.70;99.90
4390;DHT22;2209;48.982;8.406;2022-11-15T06:15:20;9.70;99.90
4390;DHT22;2209;48.982;8.406;2022-11-15T06:17:42;9.70;99.90
4390;DHT22;2209;48.982;8.406;2022-11-15T06:20:08;9.70;99.90
4390;DHT22;2209;48.982;8.406;2022-11-15T06:22:30;9.70;99.90
4390;DHT22;2209;48.982;8.406;2022-11-15T06:24:53;9.70;99.90
4390;DHT22;2209;48.982;8.406;2022-11-15T06:27:15;9.70;99.90
4390;DHT22;2209;48.982;8.406;2022-11-15T06:29:38;9.70;99.90
4390;DHT22;2209;48.982;8.406;2022-11-15T06:32:00;9.70;99.90
4390;DHT22;2209;48.982;8.406;2022-11-15T06:34:23;9.70;99.90
4390;DHT22;2209;48.982;8.406;2022-11-15T06:36:47;9.70;99.90
4390;DHT22;2209;48.982;8.406;2022-11-15T06:39:10;9.70;99.90
4390;DHT22;2209;48.982;8.406;2022-11-15T06:41:35;9.70;99.90
4390;DHT22;2209;48.982;8.406;2022-11-15T06:43:57;9.70;99.90
4390;DHT22;2209;48.982;8.406;2022-11-15T06:46:19;9.60;99.90
4390;DHT22;2209;48.982;8.406;2022-11-15T06:48:41;9.70;99.90
4390;DHT22;2209;48.982;8.406;2022-11-15T06:51:04;9.70;99.90
4390;DHT22;2209;48.982;8.406;2022-11-15T06:53:26;9.70;99.90
4390;DHT22;2209;48.982;8.406;2022-11-15T06:55:49;9.70;99.90
4390;DHT22;2209;48.982;8.406;2022-11-15T06:58:13;9.70;99.90
4390;DHT22;2209;48.982;8.406;2022-11-15T07:00:35;9.70;99.90
4390;DHT22;2209;48.982;8.406;2022-11-15T07:02:59;9.70;99.90
4390;DHT22;2209;48.982;8.406;2022-11-15T07:05:22;9.80;99.90
4390;DHT22;2209;48.982;8.406;2022-11-15T07:07:51;9.80;99.90
4390;DHT22;2209;48.982;8.406;2022-11-15T07:10:13;9.70;99.90
4390;DHT22;2209;48.982;8.406;2022-11-15T07:12:36;9.80;99.90
4390;DHT22;2209;48.982;8.406;2022-11-15T07:15:00;9.80;99.90
4390;DHT22;2209;48.982;8.406;2022-11-15T07:17:22;9.80;99.90
4390;DHT22;2209;48.982;8.406;2022-11-15T07:19:44;9.80;99.90
4390;DHT22;2209;48.982;8.406;2022-11-15T07:22:06;9.80;99.90
4390;DHT22;2209;48.982;8.406;2022-11-15T07:24:28;9.80;99.90
4390;DHT22;2209;48.982;8.406;2022-11-15T07:26:50;9.80;99.90
4390;DHT22;2209;48.982;8.406;2022-11-15T07:29:12;9.80;99.90
4390;DHT22;2209;48.982;8.406;2022-11-15T07:31:36;9.80;99.90
4390;DHT22;2209;48.982;8.406;2022-11-15T07:33:58;9.90;99.90
4390;DHT22;2209;48.982;8.406;2022-11-15T07:36:20;9.80;99.90
4390;DHT22;2209;48.982;8.406;2022-11-15T07:38:43;9.90;99.90
4390;DHT22;2209;48.982;8.406;2022-11-15T07:41:05;9.90;99.90
4390;DHT22;2209;48.982;8.406;2022-11-15T07:43:28;9.90;99.90
4390;DHT22;2209;48.982;8.406;2022-11-15T07:45:50;9.90;99.90
4390;DHT22;2209;48.982;8.406;2022-11-15T07:48:13;9.90;99.90
4390;DHT22;2209;48.982;8.406;2022-11-15T07:50:36;9.90;99.90
4390;DHT22;2209;48.982;8.406;2022-11-15T07:52:59;9.90;99.90
4390;DHT22;2209;48.982;8.406;2022-11-15T07:55:21;9.90;99.90
4390;DHT22;2209;48.982;8.406;2022-11-15T07:57:44;9.90;99.90
4390;DHT22;2209;48.982;8.406;2022-11-15T08:00:07;9.90;99.90
4390;DHT22;2209;48.982;8.406;2022-11-15T08:02:29;9.90;99.90
4390;DHT22;2209;48.982;8.406;2022-11-15T08:04:53;9.90;99.90
4390;DHT22;2209;48.982;8.406;2022-11-15T08:07:16;9.90;99.90
4390;DHT22;2209;48.982;8.406;2022-11-15T08:09:38;9.90;99.90
4390;DHT22;2209;48.982;8.406;2022-11-15T08:12:00;9.90;99.90
4390;DHT22;2209;48.982;8.406;2022-11-15T08:14:22;10.00;99.90
4390;DHT22;2209;48.982;8.406;2022-11-15T08:16:44;10.00;99.90
4390;DHT22;2209;48.982;8.406;2022-11-15T08:19:06;10.00;99.90
4390;DHT22;2209;48.982;8.406;2022-11-15T08:21:29;10.00;99.90
4390;DHT22;2209;48.982;8.406;2022-11-15T08:23:51;10.00;99.90
4390;DHT22;2209;48.982;8.406;2022-11-15T08:26:14;10.00;99.90
4390;DHT22;2209;48.982;8.406;2022-11-15T08:28:36;10.00;99.90
4390;DHT22;2209;48.982;8.406;2022-11-15T08:30:58;10.00;99.90
4390;DHT22;2209;48.982;8.406;2022-11-15T08:33:20;10.10;99.90
4390;DHT22;2209;48.982;8.406;2022-11-15T08:35:43;10.10;99.90
4390;DHT22;2209;48.982;8.406;2022-11-15T08:38:07;10.10;99.90
4390;DHT22;2209;48.982;8.406;2022-11-15T08:40:29;10.10;99.90
4390;DHT22;2209;48.982;8.406;2022-11-15T08:42:51;10.10;99.90
4390;DHT22;2209;48.982;8.406;2022-11-15T08:45:13;10.20;99.90
4390;DHT22;2209;48.982;8.406;2022-11-15T08:47:35;10.20;99.90
4390;DHT22;2209;48.982;8.406;2022-11-15T08:49:58;10.20;99.90
4390;DHT22;2209;48.982;8.406;2022-11-15T08:52:20;10.20;99.90
4390;DHT22;2209;48.982;8.406;2022-11-15T08:54:44;10.20;99.90
4390;DHT22;2209;48.982;8.406;2022-11-15T08:57:07;10.30;99.90
4390;DHT22;2209;48.982;8.406;2022-11-15T08:59:30;10.40;99.90
4390;DHT22;2209;48.982;8.406;2022-11-15T09:01:52;10.40;99.90
4390;DHT22;2209;48.982;8.406;2022-11-15T09:04:14;10.50;99.90
4390;DHT22;2209;48.982;8.406;2022-11-15T09:06:37;10.50;99.90
4390;DHT22;2209;48.982;8.406;2022-11-15T09:09:00;10.50;99.90
4390;DHT22;2209;48.982;8.406;2022-11-15T09:11:24;10.50;99.90
4390;DHT22;2209;48.982;8.406;2022-11-15T09:13:47;10.60;99.90
4390;DHT22;2209;48.982;8.406;2022-11-15T09:16:09;10.60;99.90
4390;DHT22;2209;48.982;8.406;2022-11-15T09:18:32;10.60;99.90
4390;DHT22;2209;48.982;8.406;2022-11-15T09:20:55;10.60;99.90
4390;DHT22;2209;48.982;8.406;2022-11-15T09:23:18;10.60;99.90
4390;DHT22;2209;48.982;8.406;2022-11-15T09:25:40;10.60;99.90
4390;DHT22;2209;48.982;8.406;2022-11-15T09:28:07;10.70;99.90
4390;DHT22;2209;48.982;8.406;2022-11-15T09:30:29;10.80;99.90
4390;DHT22;2209;48.982;8.406;2022-11-15T09:32:52;10.80;99.90
4390;DHT22;2209;48.982;8.406;2022-11-15T09:35:14;10.70;99.90
4390;DHT22;2209;48.982;8.406;2022-11-15T09:37:36;10.70;99.90
4390;DHT22;2209;48.982;8.406;2022-11-15T09:39:58;10.70;99.90
4390;DHT22;2209;48.982;8.406;2022-11-15T09:42:32;10.70;99.90
4390;DHT22;2209;48.982;8.406;2022-11-15T09:45:17;10.70;99.90
4390;DHT22;2209;48.982;8.406;2022-11-15T09:47:55;10.60;99.90
4390;DHT22;2209;48.982;8.406;2022-11-15T09:50:30;10.60;99.90
4390;DHT22;2209;48.982;8.406;2022-11-15T09:52:55;10.60;99.90
4390;DHT22;2209;48.982;8.406;2022-11-15T09:55:17;10.60;99.90
4390;DHT22;2209;48.982;8.406;2022-11-15T09:57:45;10.60;99.90
4390;DHT22;2209;48.982;8.406;2022-11-15T10:00:15;10.60;99.90
4390;DHT22;2209;48.982;8.406;2022-11-15T10:02:56;10.60;99.90
4390;DHT22;2209;48.982;8.406;2022-11-15T10:05:22;10.60;99.90
4390;DHT22;2209;48.982;8.406;2022-11-15T10:07:48;10.60;99.90
4390;DHT22;2209;48.982;8.406;2022-11-15T10:10:17;10.60;99.90
4390;DHT22;2209;48.982;8.406;2022-11-15T10:12:45;10.60;99.90
4390;DHT22;2209;48.982;8.406;2022-11-15T10:15:14;10.60;99.90
4390;DHT22;2209;48.982;8.406;2022-11-15T10:17:57;10.60;99.90
4390;DHT22;2209;48.982;8.406;2022-11-15T10:20:24;10.60;99.90
4390;DHT22;2209;48.982;8.406;2022-11-15T10:22:49;10.70;99.90
4390;DHT22;2209;48.982;8.406;2022-11-15T10:25:17;10.70;99.90
4390;DHT22;2209;48.982;8.406;2022-11-15T10:27:40;10.70;99.90
4390;DHT22;2209;48.982;8.406;2022-11-15T10:30:05;10.70;99.90
4390;DHT22;2209;48.982;8.406;2022-11-15T10:32:36;10.80;99.90
4390;DHT22;2209;48.982;8.406;2022-11-15T10:34:58;10.80;99.90
4390;DHT22;2209;48.982;8.406;2022-11-15T10:37:28;10.80;99.90
4390;DHT22;2209;48.982;8.406;2022-11-15T10:40:02;10.80;99.90
4390;DHT22;2209;48.982;8.406;2022-11-15T10:42:27;10.90;99.90
4390;DHT22;2209;48.982;8.406;2022-11-15T10:44:49;10.90;99.90
4390;DHT22;2209;48.982;8.406;2022-11-15T10:47:28;10.90;99.90
4390;DHT22;2209;48.982;8.406;2022-11-15T10:50:06;10.90;99.90
4390;DHT22;2209;48.982;8.406;2022-11-15T10:52:30;10.90;99.90
4390;DHT22;2209;48.982;8.406;2022-11-15T10:54:56;10.90;99.90
4390;DHT22;2209;48.982;8.406;2022-11-15T10:57:22;10.90;99.90
4390;DHT22;2209;48.982;8.406;2022-11-15T10:59:46;10.90;99.90
4390;DHT22;2209;48.982;8.406;2022-11-15T11:02:31;10.90;99.90
4390;DHT22;2209;48.982;8.406;2022-11-15T11:04:53;10.90;99.90
4390;DHT22;2209;48.982;8.406;2022-11-15T11:07:23;10.90;99.90
4390;DHT22;2209;48.982;8.406;2022-11-15T11:09:45;10.90;99.90
4390;DHT22;2209;48.982;8.406;2022-11-15T11:12:27;11.00;99.90
4390;DHT22;2209;48.982;8.406;2022-11-15T11:14:50;11.00;99.90
4390;DHT22;2209;48.982;8.406;2022-11-15T11:17:17;11.00;99.90
4390;DHT22;2209;48.982;8.406;2022-11-15T11:19:53;11.00;99.90
4390;DHT22;2209;48.982;8.406;2022-11-15T11:22:26;11.00;99.90
4390;DHT22;2209;48.982;8.406;2022-11-15T11:24:56;11.00;99.90
4390;DHT22;2209;48.982;8.406;2022-11-15T11:27:31;11.00;99.90
4390;DHT22;2209;48.982;8.406;2022-11-15T11:30:03;11.10;99.90
4390;DHT22;2209;48.982;8.406;2022-11-15T11:32:55;11.10;99.90
4390;DHT22;2209;48.982;8.406;2022-11-15T11:35:23;11.10;99.90
4390;DHT22;2209;48.982;8.406;2022-11-15T11:37:51;11.10;99.90
4390;DHT22;2209;48.982;8.406;2022-11-15T11:40:22;11.10;99.90
4390;DHT22;2209;48.982;8.406;2022-11-15T11:42:53;11.20;99.90
4390;DHT22;2209;48.982;8.406;2022-11-15T11:45:27;11.20;99.90
4390;DHT22;2209;48.982;8.406;2022-11-15T11:47:58;11.20;99.90
4390;DHT22;2209;48.982;8.406;2022-11-15T11:50:25;11.20;99.90
4390;DHT22;2209;48.982;8.406;2022-11-15T11:52:56;11.20;99.90
4390;DHT22;2209;48.982;8.406;2022-11-15T11:55:21;11.20;99.90
4390;DHT22;2209;48.982;8.406;2022-11-15T11:57:50;11.20;99.90
4390;DHT22;2209;48.982;8.406;2022-11-15T12:00:18;11.20;99.90
4390;DHT22;2209;48.982;8.406;2022-11-15T12:02:43;11.20;99.90
4390;DHT22;2209;48.982;8.406;2022-11-15T12:05:11;11.20;99.90
4390;DHT22;2209;48.982;8.406;2022-11-15T12:07:35;11.30;99.90
4390;DHT22;2209;48.982;8.406;2022-11-15T12:10:04;11.30;99.90
4390;DHT22;2209;48.982;8.406;2022-11-15T12:12:31;11.30;99.90
4390;DHT22;2209;48.982;8.406;2022-11-15T12:15:00;11.30;99.90
4390;DHT22;2209;48.982;8.406;2022-11-15T12:17:26;11.30;99.90
4390;DHT22;2209;48.982;8.406;2022-11-15T12:19:56;11.30;99.90
4390;DHT22;2209;48.982;8.406;2022-11-15T12:22:20;11.30;99.90
4390;DHT22;2209;48.982;8.406;2022-11-15T12:24:45;11.30;99.90
4390;DHT22;2209;48.982;8.406;2022-11-15T12:27:17;11.30;99.90
4390;DHT22;2209;48.982;8.406;2022-11-15T12:29:43;11.40;99.90
4390;DHT22;2209;48.982;8.406;2022-11-15T12:32:17;11.40;99.90
4390;DHT22;2209;48.982;8.406;2022-11-15T12:34:43;11.40;99.90
4390;DHT22;2209;48.982;8.406;2022-11-15T12:40:23;11.50;99.90
4390;DHT22;2209;48.982;8.406;2022-11-15T12:43:00;11.50;99.90
4390;DHT22;2209;48.982;8.406;2022-11-15T12:45:26;11.60;99.90
4390;DHT22;2209;48.982;8.406;2022-11-15T12:47:48;11.60;99.90
4390;DHT22;2209;48.982;8.406;2022-11-15T12:50:16;11.60;99.90
4390;DHT22;2209;48.982;8.406;2022-11-15T12:55:41;11.70;99.90
4390;DHT22;2209;48.982;8.406;2022-11-15T12:58:26;11.70;99.90
4390;DHT22;2209;48.982;8.406;2022-11-15T13:00:48;11.70;99.90
4390;DHT22;2209;48.982;8.406;2022-11-15T13:03:31;11.70;99.90
4390;DHT22;2209;48.982;8.406;2022-11-15T13:06:34;11.70;99.90
4390;DHT22;2209;48.982;8.406;2022-11-15T13:08:58;11.80;99.90
4390;DHT22;2209;48.982;8.406;2022-11-15T13:11:50;11.80;99.90
4390;DHT22;2209;48.982;8.406;2022-11-15T13:14:41;11.90;99.90
4390;DHT22;2209;48.982;8.406;2022-11-15T13:17:16;11.80;99.90
4390;DHT22;2209;48.982;8.406;2022-11-15T13:19:40;11.90;99.90
4390;DHT22;2209;48.982;8.406;2022-11-15T13:22:04;11.90;99.90
4390;DHT22;2209;48.982;8.406;2022-11-15T13:24:44;11.90;99.90
4390;DHT22;2209;48.982;8.406;2022-11-15T13:27:15;11.90;99.90
4390;DHT22;2209;48.982;8.406;2022-11-15T13:29:43;12.00;99.90
4390;DHT22;2209;48.982;8.406;2022-11-15T13:32:10;12.00;99.90
4390;DHT22;2209;48.982;8.406;2022-11-15T13:34:34;12.00;99.90
4390;DHT22;2209;48.982;8.406;2022-11-15T13:36:56;12.00;99.90
4390;DHT22;2209;48.982;8.406;2022-11-15T13:39:30;12.00;99.90
4390;DHT22;2209;48.982;8.406;2022-11-15T13:41:53;12.00;99.90
4390;DHT22;2209;48.982;8.406;2022-11-15T13:44:21;12.00;99.90
4390;DHT22;2209;48.982;8.406;2022-11-15T13:46:43;12.00;99.90
4390;DHT22;2209;48.982;8.406;2022-11-15T13:49:09;12.00;99.90
4390;DHT22;2209;48.982;8.406;2022-11-15T13:51:37;12.00;99.90
4390;DHT22;2209;48.982;8.406;2022-11-15T13:54:08;12.10;99.90
4390;DHT22;2209;48.982;8.406;2022-11-15T13:56:32;12.00;99.90
4390;DHT22;2209;48.982;8.406;2022-11-15T13:58:55;12.00;99.90
4390;DHT22;2209;48.982;8.406;2022-11-15T14:01:20;12.10;99.90
4390;DHT22;2209;48.982;8.406;2022-11-15T14:03:51;12.00;99.90
4390;DHT22;2209;48.982;8.406;2022-11-15T14:06:16;12.00;99.90
4390;DHT22;2209;48.982;8.406;2022-11-15T14:08:42;12.10;99.90
4390;DHT22;2209;48.982;8.406;2022-11-15T14:11:09;12.00;99.90
4390;DHT22;2209;48.982;8.406;2022-11-15T14:13:34;12.00;99.90
4390;DHT22;2209;48.982;8.406;2022-11-15T14:16:12;12.10;99.90
4390;DHT22;2209;48.982;8.406;2022-11-15T14:18:43;12.10;99.90
4390;DHT22;2209;48.982;8.406;2022-11-15T14:21:07;12.10;99.90
4390;DHT22;2209;48.982;8.406;2022-11-15T14:23:29;12.10;99.90
4390;DHT22;2209;48.982;8.406;2022-11-15T14:25:53;12.10;99.90
4390;DHT22;2209;48.982;8.406;2022-11-15T14:28:29;12.10;99.90
4390;DHT22;2209;48.982;8.406;2022-11-15T14:30:54;12.10;99.90
4390;DHT22;2209;48.982;8.406;2022-11-15T14:33:20;12.10;99.90
4390;DHT22;2209;48.982;8.406;2022-11-15T14:35:43;12.10;99.90
4390;DHT22;2209;48.982;8.406;2022-11-15T14:38:05;12.10;99.90
4390;DHT22;2209;48.982;8.406;2022-11-15T14:40:28;12.20;99.90
4390;DHT22;2209;48.982;8.406;2022-11-15T14:42:50;12.20;99.90
4390;DHT22;2209;48.982;8.406;2022-11-15T14:45:14;12.20;99.90
4390;DHT22;2209;48.982;8.406;2022-11-15T14:47:36;12.20;99.90
4390;DHT22;2209;48.982;8.406;2022-11-15T14:49:59;12.20;99.90
4390;DHT22;2209;48.982;8.406;2022-11-15T14:52:27;12.20;99.90
4390;DHT22;2209;48.982;8.406;2022-11-15T14:54:49;12.20;99.90
4390;DHT22;2209;48.982;8.406;2022-11-15T14:57:12;12.20;99.90
4390;DHT22;2209;48.982;8.406;2022-11-15T14:59:34;12.20;99.90
4390;DHT22;2209;48.982;8.406;2022-11-15T15:01:56;12.20;99.90
4390;DHT22;2209;48.982;8.406;2022-11-15T15:04:19;12.20;99.90
4390;DHT22;2209;48.982;8.406;2022-11-15T15:06:41;12.20;99.90
4390;DHT22;2209;48.982;8.406;2022-11-15T15:09:05;12.20;99.90
4390;DHT22;2209;48.982;8.406;2022-11-15T15:11:28;12.20;99.90
4390;DHT22;2209;48.982;8.406;2022-11-15T15:13:52;12.20;99.90
4390;DHT22;2209;48.982;8.406;2022-11-15T15:16:17;12.20;99.90
4390;DHT22;2209;48.982;8.406;2022-11-15T15:18:39;12.20;99.90
4390;DHT22;2209;48.982;8.406;2022-11-15T15:21:02;12.20;99.90
4390;DHT22;2209;48.982;8.406;2022-11-15T15:23:27;12.20;99.90
4390;DHT22;2209;48.982;8.406;2022-11-15T15:25:53;12.20;99.90
4390;DHT22;2209;48.982;8.406;2022-11-15T15:28:15;12.20;99.90
4390;DHT22;2209;48.982;8.406;2022-11-15T15:30:37;12.20;99.90
4390;DHT22;2209;48.982;8.406;2022-11-15T15:32:59;12.20;99.90
4390;DHT22;2209;48.982;8.406;2022-11-15T15:35:22;12.20;99.90
4390;DHT22;2209;48.982;8.406;2022-11-15T15:37:45;12.20;99.90
4390;DHT22;2209;48.982;8.406;2022-11-15T15:40:12;12.20;99.90
4390;DHT22;2209;48.982;8.406;2022-11-15T15:42:36;12.20;99.90
4390;DHT22;2209;48.982;8.406;2022-11-15T15:44:58;12.20;99.90
4390;DHT22;2209;48.982;8.406;2022-11-15T15:47:21;12.20;99.90
4390;DHT22;2209;48.982;8.406;2022-11-15T15:49:44;12.20;99.90
4390;DHT22;2209;48.982;8.406;2022-11-15T15:52:06;12.20;99.90
4390;DHT22;2209;48.982;8.406;2022-11-15T15:54:28;12.20;99.90
4390;DHT22;2209;48.982;8.406;2022-11-15T15:56:50;12.20;99.90
4390;DHT22;2209;48.982;8.406;2022-11-15T15:59:13;12.20;99.90
4390;DHT22;2209;48.982;8.406;2022-11-15T16:01:35;12.20;99.90
4390;DHT22;2209;48.982;8.406;2022-11-15T16:03:57;12.20;99.90
4390;DHT22;2209;48.982;8.406;2022-11-15T16:06:34;12.20;99.90
4390;DHT22;2209;48.982;8.406;2022-11-15T16:08:57;12.20;99.90